Time;durP1;ratioP1;P1;durP2;ratioP2;P2;SDS_P1;SDS_P2;PMS_P1;PMS_P2;Temp;Humidity;BMP_temperature;BMP_pressure;BME280_temperature;BME280_humidity;BME280_pressure;Samples;Min_cycle;Max_cycle;Signal;HPM_P1;HPM_P2
2023/10/02 00:03:39;;;;;;;14.77;8.13;;;;;;;;;;5048821;28;20058;-86
2023/10/02 00:06:11;;;;;;;20.10;9.50;;;;;;;;;;5038863;28;20124;-86
2023/10/02 00:08:42;;;;;;;16.00;9.02;;;;;;;;;;5038282;28;20057;-86
2023/10/02 00:11:35;;;;;;;15.43;8.50;;;;;;;;;;5037768;28;20041;-86
2023/10/02 00:16:53;;;;;;;17.60;8.88;;;;;;;;;;5040535;28;20053;-86
2023/10/02 00:19:27;;;;;;;14.20;7.93;;;;;;;;;;5019242;28;20045;-86
2023/10/02 00:22:08;;;;;;;14.63;8.60;;;;;;;;;;5019413;28;20045;-86
2023/10/02 00:24:35;;;;;;;12.18;7.75;;;;;;;;;;5033436;28;20053;-86
2023/10/02 00:27:03;;;;;;;15.77;8.20;;;;;;;;;;5039157;28;20053;-86
2023/10/02 00:29:31;;;;;;;15.60;8.57;;;;;;;;;;5038788;28;20049;-86
2023/10/02 00:31:59;;;;;;;14.85;8.32;;;;;;;;;;5038384;28;20046;-86
2023/10/02 00:34:30;;;;;;;17.60;7.90;;;;;;;;;;5038949;28;20157;-86
2023/10/02 00:37:05;;;;;;;16.48;8.15;;;;;;;;;;5037974;28;20049;-86
2023/10/02 00:39:33;;;;;;;13.13;8.93;;;;;;;;;;5038679;28;20068;-86
2023/10/02 00:42:16;;;;;;;14.00;8.63;;;;;;;;;;5038504;28;20053;-86
2023/10/02 00:45:02;;;;;;;14.77;8.37;;;;;;;;;;5038821;28;20091;-86
2023/10/02 00:47:40;;;;;;;13.13;8.50;;;;;;;;;;5034174;28;20045;-86
2023/10/02 00:50:27;;;;;;;14.63;7.93;;;;;;;;;;5039447;28;20050;-86
2023/10/02 00:52:56;;;;;;;16.60;8.60;;;;;;;;;;5038493;28;20041;-86
2023/10/02 00:55:25;;;;;;;15.30;8.73;;;;;;;;;;5038032;28;20050;-86
2023/10/02 00:57:56;;;;;;;14.38;8.05;;;;;;;;;;5039024;28;20171;-86
2023/10/02 01:00:35;;;;;;;14.38;8.68;;;;;;;;;;5035543;28;20054;-86
2023/10/02 01:03:05;;;;;;;17.77;8.23;;;;;;;;;;5036554;28;20557;-86
2023/10/02 01:05:42;;;;;;;15.90;8.63;;;;;;;;;;5043763;28;20053;-86
2023/10/02 01:11:14;;;;;;;;;;;;;;;;;;5032191;28;20053;-86
2023/10/02 01:13:45;;;;;;;13.88;7.63;;;;;;;;;;5042204;28;20291;-86
2023/10/02 01:16:17;;;;;;;16.25;9.10;;;;;;;;;;5042369;28;20056;-86
2023/10/02 01:18:48;;;;;;;13.85;8.57;;;;;;;;;;5041811;28;20076;-86
2023/10/02 01:21:24;;;;;;;19.77;9.18;;;;;;;;;;5043180;28;20411;-86
2023/10/02 01:24:07;;;;;;;16.35;9.07;;;;;;;;;;5042144;28;20057;-86
2023/10/02 01:26:40;;;;;;;14.98;8.40;;;;;;;;;;5039208;28;20407;-86
2023/10/02 01:29:10;;;;;;;17.98;9.02;;;;;;;;;;5040608;28;20492;-86
2023/10/02 01:31:44;;;;;;;15.00;8.45;;;;;;;;;;5042259;28;20057;-86
2023/10/02 01:34:33;;;;;;;13.65;8.20;;;;;;;;;;5042496;28;20068;-86
2023/10/02 01:37:00;;;;;;;18.42;9.70;;;;;;;;;;5034798;28;20101;-86
2023/10/02 01:39:27;;;;;;;17.92;8.38;;;;;;;;;;5041510;28;20054;-85
2023/10/02 01:41:55;;;;;;;16.70;8.40;;;;;;;;;;5042083;28;20049;-86
2023/10/02 01:44:24;;;;;;;15.52;8.07;;;;;;;;;;5042355;28;20092;-86
2023/10/02 01:46:52;;;;;;;15.48;9.20;;;;;;;;;;5042670;28;20077;-86
2023/10/02 01:49:27;;;;;;;20.20;9.60;;;;;;;;;;5041975;28;20139;-85
2023/10/02 01:52:13;;;;;;;17.40;8.82;;;;;;;;;;5041627;28;20450;-86
2023/10/02 01:54:40;;;;;;;14.38;7.90;;;;;;;;;;5042302;28;20492;-86
2023/10/02 01:57:08;;;;;;;17.55;8.55;;;;;;;;;;5042224;28;20104;-85
2023/10/02 01:59:46;;;;;;;12.77;7.95;;;;;;;;;;5043338;28;20060;-84
2023/10/02 02:02:14;;;;;;;15.27;9.23;;;;;;;;;;5040495;28;20049;-86
2023/10/02 02:04:43;;;;;;;16.90;9.52;;;;;;;;;;5040713;28;20549;-85
2023/10/02 02:07:10;;;;;;;17.83;8.85;;;;;;;;;;5039813;28;20052;-86
2023/10/02 02:09:37;;;;;;;16.70;8.77;;;;;;;;;;5041983;28;20388;-86
2023/10/02 02:12:13;;;;;;;14.77;8.40;;;;;;;;;;5041512;28;20096;-86
2023/10/02 02:14:52;;;;;;;15.05;8.20;;;;;;;;;;5035953;28;20136;-86
2023/10/02 02:17:24;;;;;;;15.13;8.25;;;;;;;;;;5049226;28;20045;-86
2023/10/02 02:19:53;;;;;;;14.57;8.65;;;;;;;;;;5033037;28;20138;-85
2023/10/02 02:22:26;;;;;;;17.10;8.90;;;;;;;;;;5041934;28;20049;-86
2023/10/02 02:24:55;;;;;;;16.85;9.27;;;;;;;;;;5043852;28;20089;-86
2023/10/02 02:27:23;;;;;;;14.95;8.45;;;;;;;;;;5042254;28;20107;-86
2023/10/02 02:29:54;;;;;;;17.40;9.23;;;;;;;;;;5042224;28;20064;-86
2023/10/02 02:32:36;;;;;;;21.88;9.18;;;;;;;;;;5041333;28;20113;-86
2023/10/02 02:35:06;;;;;;;18.08;9.07;;;;;;;;;;5052255;28;20068;-82
2023/10/02 02:37:34;;;;;;;17.85;9.27;;;;;;;;;;5059563;28;20053;-82
2023/10/02 02:42:52;;;;;;;17.08;8.70;;;;;;;;;;5045566;28;20051;-85
2023/10/02 02:45:31;;;;;;;18.70;9.88;;;;;;;;;;5031373;28;20053;-86
2023/10/02 02:48:07;;;;;;;17.92;8.98;;;;;;;;;;5038880;28;20049;-86
2023/10/02 02:50:35;;;;;;;21.42;9.13;;;;;;;;;;5038671;28;20080;-86
2023/10/02 02:53:21;;;;;;;18.00;9.65;;;;;;;;;;5040126;28;20061;-86
2023/10/02 02:56:22;;;;;;;17.80;8.68;;;;;;;;;;5039041;28;20503;-85
2023/10/02 02:58:52;;;;;;;16.50;9.77;;;;;;;;;;5035772;28;20041;-85
2023/10/02 03:01:24;;;;;;;19.85;10.15;;;;;;;;;;5039154;28;20071;-86
2023/10/02 03:03:53;;;;;;;15.23;9.40;;;;;;;;;;5039253;28;20057;-86
2023/10/02 03:06:24;;;;;;;15.30;8.52;;;;;;;;;;5036469;28;20117;-86
2023/10/02 03:08:52;;;;;;;20.48;9.30;;;;;;;;;;5039967;28;20046;-84
2023/10/02 03:11:28;;;;;;;18.38;8.90;;;;;;;;;;5039991;28;20056;-86
2023/10/02 03:14:15;;;;;;;13.00;8.75;;;;;;;;;;5040520;28;20053;-86
2023/10/02 03:16:45;;;;;;;18.08;9.23;;;;;;;;;;5039626;28;20046;-86
2023/10/02 03:19:16;;;;;;;20.08;9.07;;;;;;;;;;5039100;28;20045;-84
2023/10/02 03:21:43;;;;;;;24.55;10.48;;;;;;;;;;5041872;28;20089;-86
2023/10/02 03:24:12;;;;;;;19.50;9.85;;;;;;;;;;5038463;28;20169;-86
2023/10/02 03:26:43;;;;;;;15.90;8.35;;;;;;;;;;5033219;28;20112;-86
2023/10/02 03:29:11;;;;;;;17.13;9.18;;;;;;;;;;5031403;28;20148;-86
2023/10/02 03:31:49;;;;;;;16.65;8.13;;;;;;;;;;5039273;28;20095;-86
2023/10/02 03:34:27;;;;;;;15.98;9.07;;;;;;;;;;5020830;28;20042;-84
2023/10/02 03:39:59;;;;;;;17.48;9.85;;;;;;;;;;5033300;28;20365;-86
2023/10/02 03:42:32;;;;;;;19.45;9.23;;;;;;;;;;5039560;28;20050;-86
2023/10/02 03:45:02;;;;;;;17.77;9.48;;;;;;;;;;5035445;28;20050;-86
2023/10/02 03:47:30;;;;;;;16.52;9.13;;;;;;;;;;5040095;28;20122;-86
2023/10/02 03:50:02;;;;;;;14.43;8.43;;;;;;;;;;5036547;28;20081;-86
2023/10/02 03:52:32;;;;;;;21.23;9.13;;;;;;;;;;5039007;28;20447;-86
2023/10/02 03:55:18;;;;;;;24.40;10.25;;;;;;;;;;5038858;28;20052;-86
2023/10/02 03:57:52;;;;;;;14.77;8.80;;;;;;;;;;5039529;28;20049;-86
2023/10/02 04:02:48;;;;;;;20.83;9.73;;;;;;;;;;5035503;28;20059;-86
2023/10/02 04:05:30;;;;;;;18.80;9.27;;;;;;;;;;5039444;28;20095;-86
2023/10/02 04:08:21;;;;;;;19.77;9.25;;;;;;;;;;5039260;28;20133;-86
2023/10/02 04:10:57;;;;;;;19.30;9.75;;;;;;;;;;5038815;28;20068;-86
2023/10/02 04:13:38;;;;;;;15.60;9.25;;;;;;;;;;5044175;28;20054;-86
2023/10/02 04:19:02;;;;;;;17.10;9.30;;;;;;;;;;5031911;28;20099;-85
2023/10/02 04:21:33;;;;;;;14.07;8.88;;;;;;;;;;5039210;28;20041;-86
2023/10/02 04:24:02;;;;;;;21.20;10.07;;;;;;;;;;5036707;28;20042;-86
2023/10/02 04:26:32;;;;;;;20.02;9.68;;;;;;;;;;5038807;28;20046;-86
2023/10/02 04:30:09;;;;;;;21.10;10.07;;;;;;;;;;5038226;28;20053;-86
2023/10/02 04:32:11;;;;;;;18.08;10.23;;;;;;;;;;5022599;28;20048;-86
2023/10/02 04:34:46;;;;;;;22.60;10.07;;;;;;;;;;5023097;28;20050;-84
2023/10/02 04:37:20;;;;;;;19.38;9.07;;;;;;;;;;5040571;28;20088;-86
2023/10/02 04:42:25;;;;;;;22.48;9.88;;;;;;;;;;5033404;28;20060;-86
2023/10/02 04:44:56;;;;;;;21.15;9.65;;;;;;;;;;5038922;28;20049;-86
2023/10/02 04:47:30;;;;;;;18.02;9.93;;;;;;;;;;5033960;28;20120;-86
2023/10/02 04:52:56;;;;;;;18.95;9.38;;;;;;;;;;5030957;28;20061;-86
2023/10/02 04:55:27;;;;;;;20.33;9.40;;;;;;;;;;5029959;28;20053;-86
2023/10/02 04:58:02;;;;;;;14.60;8.73;;;;;;;;;;5035605;28;20058;-86
2023/10/02 05:00:32;;;;;;;20.05;9.40;;;;;;;;;;5030762;28;20127;-85
2023/10/02 05:06:16;;;;;;;19.02;8.70;;;;;;;;;;4996394;28;20046;-86
2023/10/02 05:11:24;;;;;;;;;;;;;;;;;;5028263;28;20050;-86
2023/10/02 05:16:35;;;;;;;20.88;8.98;;;;;;;;;;5033147;28;19929;-86
2023/10/02 05:19:09;;;;;;;24.52;10.75;;;;;;;;;;5057242;28;20053;-83
2023/10/02 05:21:50;;;;;;;25.25;11.52;;;;;;;;;;5049581;28;20046;-85
2023/10/02 05:24:19;;;;;;;19.88;10.73;;;;;;;;;;5026120;28;20052;-86
2023/10/02 05:26:47;;;;;;;27.58;10.27;;;;;;;;;;5034590;28;20080;-86
2023/10/02 05:29:36;;;;;;;22.30;10.57;;;;;;;;;;5034328;28;20049;-86
2023/10/02 05:32:19;;;;;;;20.50;10.65;;;;;;;;;;5032794;28;20093;-86
2023/10/02 05:37:48;;;;;;;21.77;9.52;;;;;;;;;;4998053;28;20095;-86
2023/10/02 05:45:39;;;;;;;26.58;10.90;;;;;;;;;;5028842;28;20046;-86
2023/10/02 05:48:07;;;;;;;22.83;9.93;;;;;;;;;;5031173;28;20057;-86
2023/10/02 05:50:40;;;;;;;21.20;9.85;;;;;;;;;;5035033;28;20069;-86
2023/10/02 05:53:09;;;;;;;19.07;9.13;;;;;;;;;;5034311;28;20136;-87
2023/10/02 05:58:32;;;;;;;20.73;9.55;;;;;;;;;;5022412;28;20060;-87
2023/10/02 06:01:04;;;;;;;17.33;9.30;;;;;;;;;;5034593;28;20494;-86
2023/10/02 06:03:35;;;;;;;23.10;10.63;;;;;;;;;;5029719;28;20049;-85
2023/10/02 06:06:15;;;;;;;20.77;10.15;;;;;;;;;;5020497;28;20069;-87
2023/10/02 06:09:01;;;;;;;20.75;9.90;;;;;;;;;;5036555;28;20045;-86
2023/10/02 06:11:33;;;;;;;15.75;8.52;;;;;;;;;;5038691;28;20053;-87
2023/10/02 06:14:10;;;;;;;20.25;10.27;;;;;;;;;;5036803;28;20092;-86
2023/10/02 06:16:40;;;;;;;20.95;10.80;;;;;;;;;;5036220;28;20140;-87
2023/10/02 06:19:13;;;;;;;21.95;10.73;;;;;;;;;;5037158;28;20049;-87
2023/10/02 06:24:27;;;;;;;35.70;13.38;;;;;;;;;;5041603;28;20117;-82
2023/10/02 06:27:04;;;;;;;23.80;11.02;;;;;;;;;;5056546;28;20105;-85
2023/10/02 06:29:35;;;;;;;23.50;11.75;;;;;;;;;;5036136;28;20049;-86
2023/10/02 06:32:05;;;;;;;24.75;12.23;;;;;;;;;;5033336;28;20045;-86
2023/10/02 06:34:39;;;;;;;31.13;13.77;;;;;;;;;;5035123;28;20045;-85
2023/10/02 06:37:07;;;;;;;220.35;105.85;;;;;;;;;;5032716;28;20053;-85
2023/10/02 06:39:35;;;;;;;136.80;75.82;;;;;;;;;;5031679;28;20471;-86
2023/10/02 06:42:04;;;;;;;90.05;52.00;;;;;;;;;;5034568;28;20499;-85
2023/10/02 06:44:42;;;;;;;76.13;45.15;;;;;;;;;;5035111;28;20100;-86
2023/10/02 06:47:13;;;;;;;57.25;30.02;;;;;;;;;;5031797;28;20163;-86
2023/10/02 06:49:43;;;;;;;63.85;29.77;;;;;;;;;;5023975;28;20081;-86
2023/10/02 06:52:17;;;;;;;53.75;26.55;;;;;;;;;;5025054;28;20055;-86
2023/10/02 06:54:49;;;;;;;51.45;26.45;;;;;;;;;;5034833;28;20061;-83
2023/10/02 06:57:18;;;;;;;65.35;32.05;;;;;;;;;;5016347;28;20061;-84
2023/10/02 06:59:52;;;;;;;55.50;28.25;;;;;;;;;;5033417;28;20529;-83
2023/10/02 07:02:29;;;;;;;86.60;24.58;;;;;;;;;;5035121;28;20081;-84
2023/10/02 07:04:57;;;;;;;59.08;15.60;;;;;;;;;;5032559;28;20082;-84
2023/10/02 07:07:30;;;;;;;36.97;14.25;;;;;;;;;;5031268;28;20128;-85
2023/10/02 07:10:09;;;;;;;26.73;11.93;;;;;;;;;;5036661;28;20073;-85
2023/10/02 07:12:40;;;;;;;24.33;10.00;;;;;;;;;;5033080;28;20098;-86
2023/10/02 07:15:13;;;;;;;23.08;9.45;;;;;;;;;;5016625;28;20088;-85
2023/10/02 07:17:47;;;;;;;18.80;8.02;;;;;;;;;;5019139;28;20054;-86
2023/10/02 07:20:18;;;;;;;22.48;8.43;;;;;;;;;;5019146;28;20418;-86
2023/10/02 07:22:45;;;;;;;15.30;7.22;;;;;;;;;;5035946;28;20141;-86
2023/10/02 07:25:24;;;;;;;12.63;6.22;;;;;;;;;;5035189;28;20119;-86
2023/10/02 07:27:52;;;;;;;15.65;6.75;;;;;;;;;;5036149;28;20065;-86
2023/10/02 07:30:27;;;;;;;15.18;7.38;;;;;;;;;;5032280;28;20460;-86
2023/10/02 07:33:02;;;;;;;13.05;6.53;;;;;;;;;;5016714;28;20050;-85
2023/10/02 07:35:36;;;;;;;17.35;7.20;;;;;;;;;;5015171;28;20057;-86
2023/10/02 07:38:08;;;;;;;16.67;6.72;;;;;;;;;;5023909;28;20053;-87
2023/10/02 07:40:51;;;;;;;13.10;6.57;;;;;;;;;;5033678;28;20099;-85
2023/10/02 07:43:23;;;;;;;16.02;7.15;;;;;;;;;;5020500;28;20061;-85
2023/10/02 07:46:06;;;;;;;24.35;7.95;;;;;;;;;;5026620;28;20049;-86
2023/10/02 07:48:35;;;;;;;23.00;7.78;;;;;;;;;;5023808;28;20093;-86
2023/10/02 07:51:03;;;;;;;19.88;6.85;;;;;;;;;;5039467;28;20476;-86
2023/10/02 07:53:40;;;;;;;25.73;7.65;;;;;;;;;;5025863;28;20082;-85
2023/10/02 07:56:18;;;;;;;30.42;8.23;;;;;;;;;;5031630;28;20074;-86
2023/10/02 07:58:54;;;;;;;41.03;9.48;;;;;;;;;;5032799;28;20054;-86
2023/10/02 08:01:27;;;;;;;37.95;8.38;;;;;;;;;;5032860;28;20360;-86
2023/10/02 08:03:55;;;;;;;13.53;6.50;;;;;;;;;;5044915;28;20050;-86
2023/10/02 08:06:33;;;;;;;16.42;6.57;;;;;;;;;;5025785;28;20295;-86
2023/10/02 08:11:51;;;;;;;16.25;5.95;;;;;;;;;;5034138;28;20057;-88
2023/10/02 08:14:34;;;;;;;13.00;6.18;;;;;;;;;;5024223;28;20055;-86
2023/10/02 08:17:09;;;;;;;11.43;6.10;;;;;;;;;;5031844;28;20083;-86
2023/10/02 08:19:53;;;;;;;8.23;4.63;;;;;;;;;;5028705;28;20107;-86
2023/10/02 08:22:51;;;;;;;10.80;5.78;;;;;;;;;;5040958;28;20060;-86
2023/10/02 08:25:14;;;;;;;39.88;7.65;;;;;;;;;;5032375;28;20136;-86
2023/10/02 08:27:55;;;;;;;19.63;6.10;;;;;;;;;;5031627;28;20054;-87
2023/10/02 08:30:31;;;;;;;9.00;5.57;;;;;;;;;;5025444;28;20053;-86
2023/10/02 08:33:09;;;;;;;13.63;6.53;;;;;;;;;;5030697;28;20128;-86
2023/10/02 08:35:52;;;;;;;14.48;5.85;;;;;;;;;;5032028;28;20499;-86
2023/10/02 08:38:22;;;;;;;12.35;5.85;;;;;;;;;;5029097;28;20050;-86
2023/10/02 08:41:00;;;;;;;11.07;5.93;;;;;;;;;;5037332;28;20042;-85
2023/10/02 08:43:28;;;;;;;14.10;5.97;;;;;;;;;;5032210;28;20049;-86
2023/10/02 08:45:56;;;;;;;13.20;6.40;;;;;;;;;;5032312;28;20049;-87
2023/10/02 08:48:25;;;;;;;12.52;6.68;;;;;;;;;;5029465;28;20054;-85
2023/10/02 08:50:57;;;;;;;12.70;6.72;;;;;;;;;;5022971;28;20045;-85
2023/10/02 08:53:26;;;;;;;13.70;5.95;;;;;;;;;;5033008;28;20049;-84
2023/10/02 08:56:24;;;;;;;9.73;6.10;;;;;;;;;;5033925;28;20107;-87
2023/10/02 09:01:37;;;;;;;11.65;6.65;;;;;;;;;;5028987;28;20058;-83
2023/10/02 09:06:58;;;;;;;10.45;6.40;;;;;;;;;;5026073;28;20457;-85
2023/10/02 09:09:27;;;;;;;13.35;6.80;;;;;;;;;;5026102;28;20418;-87
2023/10/02 09:11:58;;;;;;;13.45;7.00;;;;;;;;;;5017091;28;20136;-83
2023/10/02 09:17:12;;;;;;;11.38;6.35;;;;;;;;;;5025205;28;20056;-85
2023/10/02 09:19:44;;;;;;;12.93;6.03;;;;;;;;;;5032599;28;20053;-86
2023/10/02 09:22:14;;;;;;;18.05;6.57;;;;;;;;;;5029948;28;20046;-88
2023/10/02 09:24:42;;;;;;;11.00;6.45;;;;;;;;;;5033339;28;20049;-87
2023/10/02 09:27:31;;;;;;;10.45;5.72;;;;;;;;;;5035169;28;20496;-88
2023/10/02 09:32:50;;;;;;;9.50;6.57;;;;;;;;;;5017909;28;20401;-87
2023/10/02 09:38:31;;;;;;;13.57;6.97;;;;;;;;;;5017394;28;20053;-87
2023/10/02 09:43:32;;;;;;;13.00;7.15;;;;;;;;;;5036739;28;20517;-88
2023/10/02 09:46:06;;;;;;;10.40;6.25;;;;;;;;;;5034468;28;20049;-86
2023/10/02 09:48:46;;;;;;;11.82;6.53;;;;;;;;;;5035570;28;20053;-88
2023/10/02 09:51:16;;;;;;;12.45;6.57;;;;;;;;;;5035196;28;20419;-84
2023/10/02 09:54:04;;;;;;;11.65;7.38;;;;;;;;;;5029947;28;20046;-86
2023/10/02 09:57:04;;;;;;;12.60;7.13;;;;;;;;;;5016424;28;20445;-84
2023/10/02 09:59:48;;;;;;;13.40;7.18;;;;;;;;;;5015542;28;20046;-86
2023/10/02 10:10:47;;;;;;;12.80;7.25;;;;;;;;;;5024523;28;20479;-86
2023/10/02 10:13:25;;;;;;;16.00;7.65;;;;;;;;;;5034453;28;20049;-87
2023/10/02 10:16:23;;;;;;;16.42;7.15;;;;;;;;;;5035228;28;20092;-86
2023/10/02 10:19:22;;;;;;;13.05;7.60;;;;;;;;;;5031591;28;20053;-88
2023/10/02 10:27:40;;;;;;;17.73;7.00;;;;;;;;;;5022043;28;20054;-88
2023/10/02 10:30:27;;;;;;;10.50;7.13;;;;;;;;;;5033301;28;20495;-87
2023/10/02 10:33:15;;;;;;;20.42;8.07;;;;;;;;;;5032360;28;20549;-87
2023/10/02 10:35:59;;;;;;;20.55;8.45;;;;;;;;;;5036579;28;20041;-86
2023/10/02 10:38:41;;;;;;;20.20;8.02;;;;;;;;;;5031518;28;20037;-86
2023/10/02 10:41:14;;;;;;;14.00;8.02;;;;;;;;;;5058258;28;20045;-84
2023/10/02 10:43:55;;;;;;;;;;;;;;;;;;5038739;28;20101;-87
2023/10/02 10:46:28;;;;;;;14.77;7.57;;;;;;;;;;5027416;28;20310;-86
2023/10/02 10:55:56;;;;;;;10.95;6.43;;;;;;;;;;5152115;23;20673;-95
2023/10/02 10:58:33;;;;;;;14.50;6.60;;;;;;;;;;5052248;28;20075;-95
2023/10/02 11:01:02;;;;;;;11.73;6.28;;;;;;;;;;5045701;28;20111;-91
2023/10/02 11:03:34;;;;;;;14.63;6.60;;;;;;;;;;5045527;28;20073;-96
2023/10/02 11:06:02;;;;;;;12.27;6.85;;;;;;;;;;5037287;28;20057;-96
2023/10/02 11:08:33;;;;;;;11.25;6.70;;;;;;;;;;5042337;28;20049;-96
2023/10/02 11:11:00;;;;;;;11.68;6.65;;;;;;;;;;5038835;28;20056;-95
2023/10/02 11:13:29;;;;;;;10.80;7.22;;;;;;;;;;5044725;28;20204;-95
2023/10/02 11:16:09;;;;;;;12.43;6.93;;;;;;;;;;5044137;28;20053;-96
2023/10/02 11:18:39;;;;;;;8.07;6.47;;;;;;;;;;5053155;23;20041;-93
2023/10/02 11:21:24;;;;;;;27.63;7.72;;;;;;;;;;5040638;22;20042;-96
2023/10/02 11:23:53;;;;;;;20.40;7.70;;;;;;;;;;5025549;28;20050;-96
2023/10/02 11:26:22;;;;;;;14.63;7.13;;;;;;;;;;5024832;28;20058;-95
2023/10/02 11:31:32;;;;;;;13.02;7.35;;;;;;;;;;4997464;28;20459;-81
2023/10/02 11:34:00;;;;;;;11.10;6.93;;;;;;;;;;4994779;28;20448;-81
2023/10/02 11:36:53;;;;;;;25.92;8.27;;;;;;;;;;4994925;28;20046;-81
2023/10/02 11:39:27;;;;;;;22.52;7.38;;;;;;;;;;4999312;28;20045;-82
2023/10/02 11:41:54;;;;;;;9.93;6.43;;;;;;;;;;5014410;28;20107;-82
2023/10/02 11:44:21;;;;;;;10.32;6.65;;;;;;;;;;5006047;28;20050;-82
2023/10/02 11:46:49;;;;;;;11.07;6.43;;;;;;;;;;5014343;28;20136;-82
2023/10/02 11:49:16;;;;;;;15.13;6.47;;;;;;;;;;5010133;28;20050;-83
2023/10/02 11:51:44;;;;;;;10.38;6.75;;;;;;;;;;5011298;28;20050;-82
2023/10/02 11:54:13;;;;;;;13.05;7.22;;;;;;;;;;5006001;28;20128;-82
2023/10/02 11:56:42;;;;;;;10.02;6.65;;;;;;;;;;5015589;28;20042;-82
2023/10/02 11:59:14;;;;;;;13.07;6.78;;;;;;;;;;5015345;28;20506;-83
2023/10/02 12:01:47;;;;;;;14.63;7.35;;;;;;;;;;5011342;28;20050;-83
2023/10/02 12:04:14;;;;;;;13.77;8.23;;;;;;;;;;5006916;28;20054;-83
2023/10/02 12:06:42;;;;;;;15.63;8.32;;;;;;;;;;5015354;28;20058;-83
2023/10/02 12:09:17;;;;;;;9.98;6.50;;;;;;;;;;5011282;28;20114;-82
2023/10/02 12:11:45;;;;;;;11.88;6.75;;;;;;;;;;5006119;28;20084;-82
2023/10/02 12:14:13;;;;;;;11.07;6.68;;;;;;;;;;5012943;28;20049;-83
2023/10/02 12:16:41;;;;;;;17.73;8.50;;;;;;;;;;5005911;28;20054;-84
2023/10/02 12:19:10;;;;;;;10.80;7.93;;;;;;;;;;5004449;28;20050;-83
2023/10/02 12:21:37;;;;;;;19.83;7.38;;;;;;;;;;5004710;28;20050;-83
2023/10/02 12:24:07;;;;;;;9.80;6.07;;;;;;;;;;5005058;28;20120;-83
2023/10/02 12:26:34;;;;;;;11.02;6.75;;;;;;;;;;5014142;28;20548;-83
2023/10/02 12:29:02;;;;;;;12.32;6.85;;;;;;;;;;5004390;28;20500;-82
2023/10/02 12:31:34;;;;;;;12.55;7.60;;;;;;;;;;5003631;28;20109;-83
2023/10/02 12:34:01;;;;;;;16.55;8.13;;;;;;;;;;5003944;28;20062;-82
2023/10/02 12:36:28;;;;;;;18.83;7.63;;;;;;;;;;5005838;28;20053;-81
2023/10/02 12:38:57;;;;;;;13.55;7.80;;;;;;;;;;5013047;28;20069;-82
2023/10/02 12:41:26;;;;;;;12.55;6.50;;;;;;;;;;5006713;28;20056;-82
2023/10/02 12:43:56;;;;;;;10.75;6.50;;;;;;;;;;5014530;28;20515;-83
2023/10/02 12:46:25;;;;;;;14.05;7.45;;;;;;;;;;5005440;28;20453;-82
2023/10/02 12:48:52;;;;;;;12.23;6.95;;;;;;;;;;5005364;28;20050;-81
2023/10/02 12:51:19;;;;;;;15.77;7.60;;;;;;;;;;5010039;28;20104;-82
2023/10/02 12:53:46;;;;;;;13.00;7.13;;;;;;;;;;5009592;28;20100;-82
2023/10/02 12:56:33;;;;;;;12.25;7.18;;;;;;;;;;5010192;28;20513;-81
2023/10/02 12:59:00;;;;;;;9.15;6.30;;;;;;;;;;5012840;28;20128;-82
2023/10/02 13:01:28;;;;;;;12.30;6.22;;;;;;;;;;5006336;28;20050;-82
2023/10/02 13:03:56;;;;;;;19.35;6.40;;;;;;;;;;5014212;28;20046;-81
2023/10/02 13:06:26;;;;;;;7.80;5.45;;;;;;;;;;5012950;28;20054;-84
2023/10/02 13:09:09;;;;;;;12.40;6.68;;;;;;;;;;5006669;28;20398;-81
2023/10/02 13:11:39;;;;;;;10.75;6.30;;;;;;;;;;5009515;28;20514;-82
2023/10/02 13:14:13;;;;;;;11.63;6.50;;;;;;;;;;5009251;28;20096;-82
2023/10/02 13:16:45;;;;;;;11.07;6.15;;;;;;;;;;5013689;28;20413;-81
2023/10/02 13:19:13;;;;;;;10.93;6.45;;;;;;;;;;5031875;28;20045;-82
2023/10/02 13:21:41;;;;;;;15.85;10.90;;;;;;;;;;5032424;28;20049;-83
2023/10/02 13:24:15;;;;;;;11.55;6.70;;;;;;;;;;5031532;28;20046;-82
2023/10/02 13:26:46;;;;;;;9.45;6.68;;;;;;;;;;5024910;28;20057;-82
2023/10/02 13:29:13;;;;;;;11.00;6.63;;;;;;;;;;5034473;28;20049;-82
2023/10/02 13:31:41;;;;;;;8.55;6.03;;;;;;;;;;5008456;28;20500;-81
2023/10/02 13:34:08;;;;;;;10.43;6.30;;;;;;;;;;5008597;28;20054;-81
2023/10/02 13:36:37;;;;;;;10.80;6.63;;;;;;;;;;5011375;28;20124;-81
2023/10/02 13:39:04;;;;;;;14.85;6.97;;;;;;;;;;5006640;28;20046;-80
2023/10/02 13:41:34;;;;;;;11.07;6.85;;;;;;;;;;5010935;28;20056;-81
2023/10/02 13:44:03;;;;;;;12.35;7.70;;;;;;;;;;5014506;28;20049;-80
2023/10/02 13:46:34;;;;;;;16.02;7.22;;;;;;;;;;5012141;28;20137;-81
2023/10/02 13:49:02;;;;;;;16.73;7.97;;;;;;;;;;5006007;28;20082;-81
2023/10/02 13:51:30;;;;;;;11.52;7.35;;;;;;;;;;5017563;28;20096;-80
2023/10/02 13:53:57;;;;;;;16.23;8.45;;;;;;;;;;5016947;28;20088;-83
2023/10/02 13:56:32;;;;;;;14.25;8.75;;;;;;;;;;5012394;28;20494;-82
2023/10/02 13:59:01;;;;;;;13.23;7.88;;;;;;;;;;5013681;28;20057;-82
2023/10/02 14:01:32;;;;;;;20.40;8.68;;;;;;;;;;5010469;28;20471;-82
2023/10/02 14:04:00;;;;;;;13.80;8.35;;;;;;;;;;5008393;28;20488;-82
2023/10/02 14:06:31;;;;;;;16.05;7.63;;;;;;;;;;5012081;28;20050;-82
2023/10/02 14:08:59;;;;;;;19.48;8.38;;;;;;;;;;5013878;28;20058;-82
2023/10/02 14:11:27;;;;;;;16.25;8.55;;;;;;;;;;5016665;28;20103;-82
2023/10/02 14:13:56;;;;;;;16.50;9.00;;;;;;;;;;5017342;28;20053;-82
2023/10/02 14:16:25;;;;;;;18.38;9.88;;;;;;;;;;5017445;28;20049;-81
2023/10/02 14:18:56;;;;;;;16.83;9.68;;;;;;;;;;5016743;28;20049;-83
2023/10/02 14:21:25;;;;;;;17.70;9.68;;;;;;;;;;5011165;28;20046;-82
2023/10/02 14:23:54;;;;;;;16.65;9.80;;;;;;;;;;5004481;28;20100;-81
2023/10/02 14:26:23;;;;;;;19.63;10.07;;;;;;;;;;5007616;28;20050;-81
2023/10/02 14:28:51;;;;;;;23.92;10.35;;;;;;;;;;5007516;28;20054;-82
2023/10/02 14:31:32;;;;;;;20.30;10.30;;;;;;;;;;5012194;28;20058;-82
2023/10/02 14:34:00;;;;;;;20.98;11.27;;;;;;;;;;5006536;28;20544;-83
2023/10/02 14:36:28;;;;;;;19.25;10.65;;;;;;;;;;5014787;28;20046;-82
2023/10/02 14:38:57;;;;;;;26.30;10.00;;;;;;;;;;5014948;28;20485;-82
2023/10/02 14:41:26;;;;;;;17.38;9.60;;;;;;;;;;5006991;28;20105;-83
2023/10/02 14:43:54;;;;;;;17.38;9.77;;;;;;;;;;5006516;28;20042;-81
2023/10/02 14:46:23;;;;;;;18.00;9.43;;;;;;;;;;5014771;28;20050;-81
2023/10/02 14:48:50;;;;;;;14.80;9.00;;;;;;;;;;5007824;28;20107;-82
2023/10/02 14:51:18;;;;;;;20.40;9.70;;;;;;;;;;5012267;28;20065;-81
2023/10/02 14:53:46;;;;;;;18.60;9.65;;;;;;;;;;5003277;28;20050;-82
2023/10/02 14:56:13;;;;;;;22.60;9.52;;;;;;;;;;5014036;28;20077;-82
2023/10/02 14:58:46;;;;;;;21.50;10.00;;;;;;;;;;5014679;28;20481;-82
2023/10/02 15:01:16;;;;;;;17.13;10.10;;;;;;;;;;5015743;28;20077;-82
2023/10/02 15:03:45;;;;;;;19.42;10.15;;;;;;;;;;5008966;28;20042;-83
2023/10/02 15:06:13;;;;;;;26.80;9.45;;;;;;;;;;5014018;28;20054;-82
2023/10/02 15:08:41;;;;;;;24.95;9.98;;;;;;;;;;5008008;28;20401;-82
2023/10/02 15:11:13;;;;;;;21.02;10.35;;;;;;;;;;5006552;28;20092;-82
2023/10/02 15:13:43;;;;;;;17.25;9.07;;;;;;;;;;5015753;28;20409;-82
2023/10/02 15:16:14;;;;;;;21.98;9.43;;;;;;;;;;5007332;28;20054;-83
2023/10/02 15:18:43;;;;;;;31.80;9.82;;;;;;;;;;5014445;28;20046;-82
2023/10/02 15:21:11;;;;;;;30.63;10.95;;;;;;;;;;5007561;28;20047;-83
2023/10/02 15:23:40;;;;;;;33.47;10.30;;;;;;;;;;5013937;28;20100;-82
2023/10/02 15:26:15;;;;;;;20.75;9.25;;;;;;;;;;5014094;28;20050;-82
2023/10/02 15:28:42;;;;;;;20.50;9.45;;;;;;;;;;5007278;28;20074;-82
2023/10/02 15:31:13;;;;;;;18.58;9.73;;;;;;;;;;5013105;28;20100;-83
2023/10/02 15:33:41;;;;;;;18.30;9.15;;;;;;;;;;5008539;28;20093;-84
2023/10/02 15:36:08;;;;;;;16.75;8.60;;;;;;;;;;5013870;28;20053;-82
2023/10/02 15:38:37;;;;;;;19.27;8.88;;;;;;;;;;5009417;28;20050;-83
2023/10/02 15:41:05;;;;;;;26.15;10.30;;;;;;;;;;5004763;28;20082;-83
2023/10/02 15:43:34;;;;;;;21.52;8.75;;;;;;;;;;5008383;28;20053;-82
2023/10/02 15:46:03;;;;;;;20.50;9.43;;;;;;;;;;5003979;28;20050;-83
2023/10/02 15:48:31;;;;;;;36.42;9.95;;;;;;;;;;5014583;28;20046;-83
2023/10/02 15:50:59;;;;;;;22.60;9.43;;;;;;;;;;5006352;28;20053;-83
2023/10/02 15:53:27;;;;;;;19.27;9.55;;;;;;;;;;5014287;28;20108;-82
2023/10/02 15:55:56;;;;;;;24.48;9.77;;;;;;;;;;5007495;28;20104;-82
2023/10/02 15:58:23;;;;;;;19.50;9.85;;;;;;;;;;5014482;28;20129;-83
2023/10/02 16:00:52;;;;;;;26.05;10.40;;;;;;;;;;5006710;28;20096;-83
2023/10/02 16:03:19;;;;;;;17.83;9.65;;;;;;;;;;5010274;28;20068;-83
2023/10/02 16:05:47;;;;;;;16.20;8.82;;;;;;;;;;5010165;28;20121;-82
2023/10/02 16:08:14;;;;;;;15.35;9.20;;;;;;;;;;5013652;28;20068;-83
2023/10/02 16:10:41;;;;;;;20.08;9.45;;;;;;;;;;5013442;28;20141;-83
2023/10/02 16:13:09;;;;;;;21.85;9.75;;;;;;;;;;5013214;28;20099;-82
2023/10/02 16:15:36;;;;;;;18.55;9.88;;;;;;;;;;5006963;28;20050;-83
2023/10/02 16:18:05;;;;;;;27.17;9.60;;;;;;;;;;5020580;28;20039;-84
2023/10/02 16:20:35;;;;;;;22.75;9.27;;;;;;;;;;5029910;28;20030;-84
2023/10/02 16:23:02;;;;;;;21.08;10.35;;;;;;;;;;5029963;28;20055;-83
2023/10/02 16:25:31;;;;;;;26.38;10.27;;;;;;;;;;5038795;28;20030;-83
2023/10/02 16:27:59;;;;;;;26.35;12.05;;;;;;;;;;5038671;28;20034;-83
2023/10/02 16:30:27;;;;;;;21.15;11.63;;;;;;;;;;5012738;28;20142;-83